Time;durP1;ratioP1;P1;durP2;ratioP2;P2;SDS_P1;SDS_P2;PMS_P1;PMS_P2;Temp;Humidity;BMP_temperature;BMP_pressure;BME280_temperature;BME280_humidity;BME280_pressure;Samples;Min_cycle;Max_cycle;Signal;HPM_P1;HPM_P2
2021/06/12 00:02:16;;;;;;;11.50;10.30;;;17.90;99.90;;;;;;5061127;28;20635;-92
2021/06/12 00:04:43;;;;;;;11.60;10.70;;;17.90;99.90;;;;;;5063250;28;20630;-92
2021/06/12 00:07:10;;;;;;;11.67;10.80;;;17.90;99.90;;;;;;5063926;28;20626;-92
2021/06/12 00:09:39;;;;;;;11.60;10.70;;;17.90;99.90;;;;;;5062307;28;20664;-93
2021/06/12 00:12:06;;;;;;;13.00;11.80;;;17.90;99.90;;;;;;5063916;28;20620;-92
2021/06/12 00:14:35;;;;;;;12.10;11.20;;;17.80;99.90;;;;;;5060627;28;20637;-91
2021/06/12 00:17:02;;;;;;;12.27;11.30;;;17.80;99.90;;;;;;5066279;28;21117;-91
2021/06/12 00:19:29;;;;;;;12.40;11.50;;;17.80;99.90;;;;;;5058831;28;20625;-91
2021/06/12 00:21:55;;;;;;;12.23;11.33;;;17.80;99.90;;;;;;5060182;28;20637;-91
2021/06/12 00:24:24;;;;;;;11.97;11.07;;;17.70;99.90;;;;;;5064722;28;20625;-91
2021/06/12 00:26:51;;;;;;;12.30;11.30;;;17.60;99.90;;;;;;5065909;28;20983;-91
2021/06/12 00:29:17;;;;;;;12.90;11.73;;;17.50;99.90;;;;;;5064298;28;20653;-93
2021/06/12 00:31:45;;;;;;;12.97;12.00;;;17.50;99.90;;;;;;5059207;28;20628;-91
2021/06/12 00:34:14;;;;;;;13.07;12.17;;;17.50;99.90;;;;;;5069072;28;20639;-92
2021/06/12 00:36:40;;;;;;;12.90;11.90;;;17.30;99.90;;;;;;5062714;28;20625;-92
2021/06/12 00:39:06;;;;;;;11.87;10.87;;;17.20;99.90;;;;;;5060429;28;21225;-93
2021/06/12 00:41:33;;;;;;;12.67;11.73;;;17.10;99.90;;;;;;5065170;28;20680;-92
2021/06/12 00:43:59;;;;;;;13.10;11.90;;;17.10;99.90;;;;;;5060079;28;20630;-95
2021/06/12 00:46:27;;;;;;;11.40;10.40;;;17.00;99.90;;;;;;5062317;28;20630;-92
2021/06/12 00:48:59;;;;;;;13.20;12.20;;;17.00;99.90;;;;;;5063825;28;20621;-92
2021/06/12 00:51:25;;;;;;;13.60;12.60;;;16.90;99.90;;;;;;5059276;28;20656;-94
2021/06/12 00:53:52;;;;;;;12.87;11.83;;;16.90;99.90;;;;;;5061655;28;20634;-94
2021/06/12 00:56:19;;;;;;;12.57;11.57;;;16.80;99.90;;;;;;5063133;28;20688;-90
2021/06/12 00:58:47;;;;;;;13.33;12.33;;;16.60;99.90;;;;;;5061498;28;20665;-92
2021/06/12 01:01:18;;;;;;;13.20;12.10;;;16.60;99.90;;;;;;5055582;28;20654;-92
2021/06/12 01:03:45;;;;;;;13.20;12.20;;;16.60;99.90;;;;;;5058763;28;21197;-90
2021/06/12 01:06:16;;;;;;;12.80;11.80;;;16.60;99.90;;;;;;5059861;28;20624;-95
2021/06/12 01:08:44;;;;;;;12.63;11.73;;;16.60;99.90;;;;;;5066400;28;21050;-95
2021/06/12 01:11:13;;;;;;;13.57;12.47;;;16.60;99.90;;;;;;5060098;28;20672;-94
2021/06/12 01:13:49;;;;;;;15.00;13.90;;;16.50;99.90;;;;;;5065924;28;20721;-94
2021/06/12 01:16:21;;;;;;;13.33;12.33;;;16.50;99.90;;;;;;5065390;28;20627;-93
2021/06/12 01:18:52;;;;;;;14.13;13.13;;;16.50;99.90;;;;;;5061984;28;21553;-95
2021/06/12 01:21:31;;;;;;;14.43;13.27;;;16.40;99.90;;;;;;5065916;28;21069;-93
2021/06/12 01:24:16;;;;;;;14.20;13.10;;;16.40;99.90;;;;;;5070552;28;20639;-94
2021/06/12 01:26:52;;;;;;;13.43;11.93;;;16.30;99.90;;;;;;5067403;28;20626;-96
2021/06/12 01:29:41;;;;;;;15.10;13.87;;;16.30;99.90;;;;;;5073372;28;20700;-96
2021/06/12 01:32:15;;;;;;;12.57;11.57;;;16.30;99.90;;;;;;5068983;28;21233;-95
2021/06/12 01:34:43;;;;;;;14.13;12.97;;;16.30;99.90;;;;;;5080893;28;20712;-94
2021/06/12 01:37:12;;;;;;;14.10;13.00;;;16.20;99.90;;;;;;5085172;28;21350;-96
2021/06/12 01:39:40;;;;;;;13.40;12.43;;;16.10;99.90;;;;;;5079606;28;20649;-95
2021/06/12 01:42:09;;;;;;;14.00;12.90;;;16.10;99.90;;;;;;5066983;28;20651;-95
2021/06/12 01:44:40;;;;;;;14.30;13.30;;;16.00;99.90;;;;;;5060912;28;20686;-95
2021/06/12 01:47:12;;;;;;;12.70;11.70;;;16.00;99.90;;;;;;5064132;28;20686;-95
2021/06/12 01:49:40;;;;;;;12.93;11.77;;;16.00;99.90;;;;;;5064963;28;20657;-95
2021/06/12 01:52:10;;;;;;;13.07;12.17;;;15.90;99.90;;;;;;5069384;28;20641;-94
2021/06/12 01:54:49;;;;;;;15.30;12.23;;;15.90;99.90;;;;;;5068591;28;20645;-95
2021/06/12 01:57:20;;;;;;;14.17;13.07;;;15.90;99.90;;;;;;5068855;28;20681;-95
2021/06/12 01:59:49;;;;;;;14.40;13.20;;;15.90;99.90;;;;;;5075279;28;20649;-95
2021/06/12 02:02:22;;;;;;;13.73;12.60;;;15.90;99.90;;;;;;5079420;28;20690;-94
2021/06/12 02:04:51;;;;;;;12.77;11.90;;;16.00;99.90;;;;;;5062750;28;21080;-95
2021/06/12 02:07:20;;;;;;;13.50;12.40;;;15.90;99.90;;;;;;5067190;28;20633;-94
2021/06/12 02:09:51;;;;;;;14.13;13.13;;;16.00;99.90;;;;;;5071637;28;20661;-94
2021/06/12 02:12:18;;;;;;;15.47;14.20;;;15.90;99.90;;;;;;5063475;28;20641;-92
2021/06/12 02:14:46;;;;;;;14.00;12.87;;;15.80;99.90;;;;;;5061091;28;20636;-95
2021/06/12 02:17:13;;;;;;;13.93;12.80;;;15.70;99.90;;;;;;5062745;28;21024;-92
2021/06/12 02:19:45;;;;;;;13.57;12.30;;;15.80;99.90;;;;;;5063493;28;21690;-93
2021/06/12 02:22:14;;;;;;;13.63;12.60;;;15.80;99.90;;;;;;5059158;28;20729;-93
2021/06/12 02:24:43;;;;;;;13.10;12.17;;;15.70;99.90;;;;;;5069552;28;20628;-96
2021/06/12 02:27:11;;;;;;;13.80;12.70;;;15.70;99.90;;;;;;5065467;28;20632;-96
2021/06/12 02:29:41;;;;;;;13.50;12.40;;;15.70;99.90;;;;;;5062337;28;20671;-95
2021/06/12 02:32:10;;;;;;;13.50;12.50;;;15.70;99.90;;;;;;5075222;28;20665;-95
2021/06/12 02:34:38;;;;;;;16.97;13.43;;;15.70;99.90;;;;;;5069782;28;20877;-95
2021/06/12 02:37:09;;;;;;;12.87;11.97;;;15.70;99.90;;;;;;5071675;28;20684;-96
2021/06/12 02:39:37;;;;;;;12.50;11.60;;;15.70;99.90;;;;;;5064585;28;20668;-95
2021/06/12 02:42:06;;;;;;;12.57;11.67;;;15.70;99.90;;;;;;5074594;28;20623;-94
2021/06/12 02:44:35;;;;;;;13.60;12.60;;;15.70;99.90;;;;;;5066668;28;20652;-93
2021/06/12 02:47:05;;;;;;;12.13;11.00;;;15.70;99.90;;;;;;5067589;28;20622;-94
2021/06/12 02:49:36;;;;;;;13.97;12.97;;;15.60;99.90;;;;;;5065162;28;21237;-96
2021/06/12 02:52:16;;;;;;;13.40;12.13;;;15.50;99.90;;;;;;5071208;28;20663;-94
2021/06/12 02:54:45;;;;;;;12.57;11.40;;;15.60;99.90;;;;;;5065827;28;20639;-94
2021/06/12 02:57:12;;;;;;;12.00;11.20;;;15.50;99.90;;;;;;5066746;28;20676;-95
2021/06/12 02:59:43;;;;;;;12.17;11.30;;;15.40;99.90;;;;;;5069468;28;21224;-95
2021/06/12 03:02:13;;;;;;;13.60;12.60;;;15.40;99.90;;;;;;5083105;28;20722;-95
2021/06/12 03:04:43;;;;;;;14.20;12.80;;;15.40;99.90;;;;;;5064974;28;20633;-95
2021/06/12 03:07:13;;;;;;;12.07;11.13;;;15.40;99.90;;;;;;5083192;28;20624;-95
2021/06/12 03:09:41;;;;;;;13.17;12.07;;;15.40;99.90;;;;;;5081196;28;20651;-95
2021/06/12 03:12:10;;;;;;;12.27;11.37;;;15.40;99.90;;;;;;5082061;28;20628;-94
2021/06/12 03:14:38;;;;;;;14.10;12.87;;;15.30;99.90;;;;;;5076001;28;20632;-96
2021/06/12 03:17:06;;;;;;;12.70;11.60;;;15.30;99.90;;;;;;5076217;28;20760;-96
2021/06/12 03:19:52;;;;;;;11.50;10.70;;;15.30;99.90;;;;;;5066605;28;20660;-93
2021/06/12 03:22:22;;;;;;;13.50;12.50;;;15.10;99.90;;;;;;5068909;28;20729;-94
2021/06/12 03:24:49;;;;;;;13.23;12.23;;;15.00;99.90;;;;;;5073964;28;20625;-96
2021/06/12 03:27:15;;;;;;;12.97;11.77;;;15.10;99.90;;;;;;5081483;28;20615;-93
2021/06/12 03:29:43;;;;;;;12.57;11.60;;;15.10;99.90;;;;;;5077188;28;20753;-93
2021/06/12 03:32:11;;;;;;;12.20;11.40;;;15.10;99.90;;;;;;5074850;28;20653;-94
2021/06/12 03:34:37;;;;;;;14.20;13.10;;;15.10;99.90;;;;;;5075393;28;21143;-96
2021/06/12 03:37:06;;;;;;;13.57;12.30;;;15.10;99.90;;;;;;5075313;28;21259;-94
2021/06/12 03:39:35;;;;;;;12.40;11.50;;;15.10;99.90;;;;;;5065474;28;20665;-95
2021/06/12 03:42:02;;;;;;;12.60;11.70;;;15.10;99.90;;;;;;5075263;28;21212;-94
2021/06/12 03:44:29;;;;;;;13.50;12.13;;;15.10;99.90;;;;;;5081122;28;20629;-94
2021/06/12 03:46:56;;;;;;;12.60;11.70;;;15.10;99.90;;;;;;5069311;28;20743;-96
2021/06/12 03:49:22;;;;;;;14.10;13.07;;;15.10;99.90;;;;;;5071724;28;21493;-94
2021/06/12 03:51:50;;;;;;;23.00;12.93;;;15.10;99.90;;;;;;5064815;28;20780;-94
2021/06/12 03:54:17;;;;;;;12.90;12.00;;;15.10;99.90;;;;;;5061818;28;20611;-93
2021/06/12 03:56:45;;;;;;;12.33;11.43;;;15.20;99.90;;;;;;5066601;28;20760;-93
2021/06/12 03:59:14;;;;;;;11.63;10.83;;;15.10;99.90;;;;;;5065932;28;20639;-92
2021/06/12 04:01:48;;;;;;;12.60;11.60;;;15.10;99.90;;;;;;5069300;28;20629;-92
2021/06/12 04:04:16;;;;;;;13.40;12.40;;;15.10;99.90;;;;;;5069394;28;20612;-94
2021/06/12 04:06:47;;;;;;;13.30;12.40;;;15.20;99.90;;;;;;5062179;28;20641;-95
2021/06/12 04:09:13;;;;;;;12.93;12.00;;;15.20;99.90;;;;;;5073242;28;20626;-95
2021/06/12 04:11:40;;;;;;;13.33;12.43;;;15.20;99.90;;;;;;5067919;28;20747;-95
2021/06/12 04:14:12;;;;;;;13.50;12.60;;;15.20;99.90;;;;;;5070983;28;20629;-95
2021/06/12 04:16:39;;;;;;;12.63;11.77;;;15.20;99.90;;;;;;5062027;28;20636;-95
2021/06/12 04:19:05;;;;;;;15.00;13.70;;;15.30;99.90;;;;;;5070122;28;20652;-96
2021/06/12 04:21:32;;;;;;;14.47;13.30;;;15.20;99.90;;;;;;5071066;28;20654;-96
2021/06/12 04:24:21;;;;;;;13.70;12.73;;;15.20;99.90;;;;;;5070144;28;20732;-96
2021/06/12 04:26:48;;;;;;;13.70;12.67;;;15.30;99.90;;;;;;5071871;28;20630;-96
2021/06/12 04:29:16;;;;;;;14.30;13.30;;;15.40;99.90;;;;;;5085254;28;20632;-94
2021/06/12 04:31:44;;;;;;;15.60;13.47;;;15.40;99.90;;;;;;5083492;28;20641;-95
2021/06/12 04:34:10;;;;;;;12.93;11.97;;;15.30;99.90;;;;;;5068594;28;20629;-95
2021/06/12 04:36:43;;;;;;;12.33;11.43;;;15.40;99.90;;;;;;5064657;28;20717;-95
2021/06/12 04:39:11;;;;;;;13.70;12.70;;;15.40;99.90;;;;;;5064139;28;20688;-92
2021/06/12 04:41:40;;;;;;;13.53;12.53;;;15.40;99.90;;;;;;5065574;28;20682;-93
2021/06/12 04:44:07;;;;;;;14.70;13.50;;;15.50;99.90;;;;;;5067786;28;20636;-93
2021/06/12 04:46:35;;;;;;;14.20;13.10;;;15.60;99.90;;;;;;5061853;28;20662;-92
2021/06/12 04:49:02;;;;;;;14.37;13.27;;;15.70;99.90;;;;;;5066674;28;20716;-93
2021/06/12 04:51:39;;;;;;;13.67;12.67;;;15.80;99.90;;;;;;5068732;28;20672;-94
2021/06/12 04:54:07;;;;;;;14.33;13.10;;;15.90;99.90;;;;;;5064685;28;21292;-93
2021/06/12 04:56:38;;;;;;;15.60;14.27;;;15.90;99.90;;;;;;5074016;28;20635;-94
2021/06/12 04:59:06;;;;;;;15.37;13.97;;;16.10;99.90;;;;;;5078688;28;20664;-94
2021/06/12 05:01:32;;;;;;;14.40;13.40;;;16.20;99.90;;;;;;5065853;28;20713;-93
2021/06/12 05:04:04;;;;;;;15.17;13.97;;;16.30;99.90;;;;;;5070213;28;20657;-94
2021/06/12 05:06:34;;;;;;;15.60;14.30;;;16.20;99.90;;;;;;5068116;28;20656;-93
2021/06/12 05:09:04;;;;;;;13.30;12.23;;;16.20;99.90;;;;;;5068625;28;20657;-94
2021/06/12 05:11:31;;;;;;;14.70;13.60;;;16.20;99.90;;;;;;5064764;28;21224;-94
2021/06/12 05:13:58;;;;;;;14.90;13.60;;;16.20;99.90;;;;;;5068878;28;20634;-93
2021/06/12 05:16:27;;;;;;;15.00;13.80;;;16.50;99.90;;;;;;5072301;28;21539;-95
2021/06/12 05:18:57;;;;;;;14.50;13.40;;;16.60;99.90;;;;;;5057971;28;20664;-94
2021/06/12 05:21:39;;;;;;;14.80;13.70;;;16.60;99.90;;;;;;5066013;28;20723;-95
2021/06/12 05:24:09;;;;;;;16.77;15.37;;;16.70;99.90;;;;;;5072651;28;21264;-95
2021/06/12 05:26:42;;;;;;;14.60;13.50;;;16.80;99.90;;;;;;5074389;28;20647;-95
2021/06/12 05:29:10;;;;;;;14.57;13.37;;;16.90;99.90;;;;;;5064138;28;20625;-93
2021/06/12 05:31:44;;;;;;;13.73;12.73;;;16.90;99.90;;;;;;5064702;28;20650;-94
2021/06/12 05:34:13;;;;;;;13.87;12.77;;;17.00;99.90;;;;;;5080456;28;20625;-93
2021/06/12 05:36:41;;;;;;;14.20;13.10;;;17.00;99.90;;;;;;5083142;28;20626;-94
2021/06/12 05:42:27;;;;;;;13.00;12.00;;;17.40;99.90;;;;;;5127706;22;20683;-96
2021/06/12 05:44:55;;;;;;;13.37;12.27;;;17.40;99.90;;;;;;5084000;28;21263;-95
2021/06/12 05:47:22;;;;;;;13.00;11.90;;;17.60;99.90;;;;;;5075963;28;21052;-95
2021/06/12 05:49:48;;;;;;;12.30;11.27;;;17.70;99.90;;;;;;5062104;28;20991;-96
2021/06/12 05:52:24;;;;;;;13.67;11.30;;;17.70;99.90;;;;;;5065648;28;20662;-95
2021/06/12 05:54:57;;;;;;;16.00;11.70;;;17.80;99.90;;;;;;5066051;28;20620;-96
2021/06/12 05:57:25;;;;;;;12.50;11.50;;;17.90;99.90;;;;;;5068235;28;20662;-95
2021/06/12 05:59:53;;;;;;;11.77;10.87;;;18.00;99.90;;;;;;5073001;28;20657;-96
2021/06/12 06:02:20;;;;;;;12.00;11.00;;;18.00;99.90;;;;;;5071844;28;20645;-94
2021/06/12 06:04:52;;;;;;;10.77;9.87;;;18.10;99.90;;;;;;5069055;28;20729;-94
2021/06/12 06:07:20;;;;;;;12.30;11.47;;;18.20;99.90;;;;;;5068482;28;20632;-93
2021/06/12 06:09:46;;;;;;;11.10;10.30;;;18.40;99.90;;;;;;5065380;28;20684;-93
2021/06/12 06:12:13;;;;;;;11.87;10.87;;;18.50;99.90;;;;;;5071441;28;20718;-94
2021/06/12 06:14:39;;;;;;;11.40;10.47;;;18.50;99.90;;;;;;5063148;28;20640;-92
2021/06/12 06:17:07;;;;;;;11.40;10.43;;;18.70;99.90;;;;;;5064400;28;21248;-94
2021/06/12 06:19:34;;;;;;;11.30;10.40;;;18.80;99.90;;;;;;5064388;28;21186;-95
2021/06/12 06:22:01;;;;;;;11.30;10.30;;;19.00;99.90;;;;;;5068181;28;20715;-94
2021/06/12 06:24:28;;;;;;;12.07;11.07;;;19.10;99.90;;;;;;5066296;28;20630;-94
2021/06/12 06:26:55;;;;;;;11.73;10.57;;;19.10;99.90;;;;;;5067095;28;20602;-94
2021/06/12 06:29:24;;;;;;;9.70;8.93;;;19.20;99.90;;;;;;5068157;28;20628;-95
2021/06/12 06:32:07;;;;;;;10.57;9.77;;;19.30;99.90;;;;;;5067898;28;20669;-96
2021/06/12 06:34:45;;;;;;;11.53;10.53;;;19.40;99.90;;;;;;5075978;28;20760;-96
2021/06/12 06:45:15;;;;;;;10.63;9.83;;;19.70;99.90;;;;;;5048240;28;20670;-96
2021/06/12 06:47:44;;;;;;;11.37;10.37;;;19.80;99.90;;;;;;5043174;28;20637;-95
2021/06/12 06:50:19;;;;;;;11.23;10.30;;;19.90;99.90;;;;;;5038080;28;20645;-95
2021/06/12 06:52:52;;;;;;;10.57;9.77;;;20.10;99.90;;;;;;5016977;28;20656;-96
2021/06/12 06:55:24;;;;;;;11.27;9.83;;;20.20;99.90;;;;;;5045155;28;20662;-96
2021/06/12 06:58:00;;;;;;;10.10;9.40;;;20.40;99.90;;;;;;5032173;28;20659;-96
2021/06/12 07:00:45;;;;;;;10.57;9.67;;;20.40;99.90;;;;;;5110793;22;20682;-96
2021/06/12 07:03:13;;;;;;;11.13;9.97;;;20.40;99.90;;;;;;5089250;28;20616;-96
2021/06/12 07:05:43;;;;;;;10.33;9.27;;;20.70;99.90;;;;;;5091531;28;20735;-96
2021/06/12 07:08:12;;;;;;;12.23;10.97;;;20.90;99.90;;;;;;5098110;28;20616;-96
2021/06/12 07:10:39;;;;;;;11.40;10.50;;;20.90;99.90;;;;;;5088578;28;20658;-94
2021/06/12 07:13:06;;;;;;;11.57;10.53;;;20.70;99.90;;;;;;5085079;28;20727;-93
2021/06/12 07:15:33;;;;;;;11.40;10.40;;;20.80;99.90;;;;;;5087401;28;20637;-92
2021/06/12 07:18:03;;;;;;;11.53;10.10;;;20.90;99.90;;;;;;5086820;28;20664;-94
2021/06/12 07:20:32;;;;;;;11.50;10.47;;;20.90;99.90;;;;;;5085047;28;20658;-90
2021/06/12 07:23:07;;;;;;;11.77;10.70;;;20.90;99.90;;;;;;5098109;28;20738;-93
2021/06/12 07:25:53;;;;;;;11.43;10.63;;;20.90;99.90;;;;;;5099492;28;20642;-96
2021/06/12 07:28:38;;;;;;;11.10;10.40;;;21.00;99.90;;;;;;5107981;28;21120;-96
2021/06/12 07:52:00;;;;;;;11.30;10.50;;;22.00;99.90;;;;;;5055291;28;21042;-95
2021/06/12 07:54:29;;;;;;;11.40;10.50;;;22.20;99.90;;;;;;5047617;28;20631;-92
2021/06/12 07:56:55;;;;;;;11.17;10.37;;;22.40;99.90;;;;;;5048404;28;20605;-90
2021/06/12 07:59:22;;;;;;;10.80;10.07;;;22.50;99.90;;;;;;5031352;28;20706;-91
2021/06/12 08:01:50;;;;;;;10.87;9.10;;;22.70;99.90;;;;;;5049219;28;21148;-92
2021/06/12 08:04:17;;;;;;;16.10;10.37;;;22.80;99.90;;;;;;5054542;28;20610;-91
2021/06/12 08:06:44;;;;;;;10.60;9.80;;;23.00;99.90;;;;;;5031544;28;20744;-92
2021/06/12 08:09:19;;;;;;;9.37;8.67;;;23.10;99.90;;;;;;5043628;28;20630;-93
2021/06/12 08:11:45;;;;;;;10.43;9.47;;;23.10;99.90;;;;;;5051939;28;21173;-91
2021/06/12 08:14:11;;;;;;;10.80;10.00;;;23.40;99.90;;;;;;5046123;28;20615;-91
2021/06/12 08:16:41;;;;;;;10.10;9.20;;;23.50;99.90;;;;;;5049180;28;20633;-91
2021/06/12 08:19:14;;;;;;;10.43;9.53;;;23.50;99.90;;;;;;5048511;28;20769;-92
2021/06/12 08:21:43;;;;;;;10.73;8.93;;;23.90;99.90;;;;;;5065262;28;20602;-90
2021/06/12 08:24:10;;;;;;;9.33;8.43;;;23.90;99.90;;;;;;5060438;28;20617;-91
2021/06/12 08:26:38;;;;;;;8.50;7.80;;;24.00;99.90;;;;;;5047339;28;20622;-91
2021/06/12 08:29:06;;;;;;;8.80;8.10;;;24.20;99.90;;;;;;5046530;28;20621;-91
2021/06/12 08:31:35;;;;;;;10.97;8.70;;;24.50;99.90;;;;;;5047661;28;21152;-92
2021/06/12 08:34:04;;;;;;;8.40;7.80;;;24.60;99.90;;;;;;5052049;28;20652;-93
2021/06/12 08:36:31;;;;;;;8.60;7.97;;;24.80;99.90;;;;;;5049843;28;20625;-92
2021/06/12 08:38:58;;;;;;;8.47;7.73;;;25.10;99.90;;;;;;5057375;28;20646;-93
2021/06/12 08:41:24;;;;;;;8.10;7.40;;;25.40;99.90;;;;;;5057871;28;20616;-92
2021/06/12 08:43:57;;;;;;;9.00;8.30;;;25.50;99.90;;;;;;5048398;28;20642;-92
2021/06/12 08:46:25;;;;;;;8.20;7.57;;;25.70;99.90;;;;;;5029567;28;20622;-91
2021/06/12 08:48:52;;;;;;;8.50;7.33;;;26.00;99.90;;;;;;5049787;28;21176;-90
2021/06/12 08:51:18;;;;;;;7.67;7.07;;;26.30;99.90;;;;;;5033346;28;20623;-91
2021/06/12 08:53:48;;;;;;;7.27;6.57;;;26.10;99.90;;;;;;5051207;28;21287;-90
2021/06/12 08:56:15;;;;;;;6.60;6.03;;;26.20;99.90;;;;;;5048537;28;20644;-91
2021/06/12 08:58:41;;;;;;;7.07;6.40;;;26.40;99.90;;;;;;5049548;28;20666;-91
2021/06/12 09:01:09;;;;;;;7.40;6.80;;;26.60;99.90;;;;;;5031936;28;20914;-91
2021/06/12 09:03:40;;;;;;;6.73;6.23;;;26.50;99.90;;;;;;5049891;28;20637;-90
2021/06/12 09:06:07;;;;;;;7.47;6.03;;;26.10;99.90;;;;;;5045613;28;20619;-91
2021/06/12 09:08:36;;;;;;;6.47;5.87;;;26.50;99.90;;;;;;5044860;28;20641;-92
2021/06/12 09:11:06;;;;;;;7.20;6.60;;;26.70;99.90;;;;;;5045970;28;20650;-91
2021/06/12 09:13:43;;;;;;;8.23;7.43;;;26.70;99.90;;;;;;5047095;28;20683;-92
2021/06/12 09:16:28;;;;;;;7.77;6.83;;;26.70;99.90;;;;;;5048316;28;20629;-89
2021/06/12 09:18:57;;;;;;;10.73;6.60;;;26.70;99.90;;;;;;5049625;28;20971;-91
2021/06/12 09:21:26;;;;;;;6.87;6.37;;;26.70;99.90;;;;;;5045912;28;20701;-90
2021/06/12 09:23:54;;;;;;;6.60;6.00;;;26.50;99.90;;;;;;5053442;28;20630;-90
2021/06/12 09:26:22;;;;;;;5.87;5.37;;;26.70;99.90;;;;;;5047136;28;20633;-90
2021/06/12 09:28:51;;;;;;;5.60;5.00;;;26.80;99.90;;;;;;5048821;28;20630;-92
2021/06/12 09:31:25;;;;;;;5.33;4.93;;;26.80;99.90;;;;;;5044824;28;20638;-91
2021/06/12 09:33:54;;;;;;;4.40;4.00;;;27.10;99.90;;;;;;5047923;28;20630;-90
2021/06/12 09:36:32;;;;;;;4.37;4.07;;;26.80;99.90;;;;;;5044617;28;20636;-91
2021/06/12 09:39:06;;;;;;;4.07;3.77;;;26.80;99.90;;;;;;5040277;28;20674;-92
2021/06/12 09:41:33;;;;;;;3.87;3.40;;;26.80;99.90;;;;;;5045784;28;20629;-91
2021/06/12 09:43:59;;;;;;;3.33;3.03;;;27.00;99.90;;;;;;5027438;28;20970;-91
2021/06/12 09:46:35;;;;;;;3.70;3.40;;;26.80;99.90;;;;;;5043794;28;20628;-91
2021/06/12 09:49:02;;;;;;;3.37;3.07;;;26.80;99.90;;;;;;5044061;28;20630;-89
2021/06/12 09:51:28;;;;;;;5.10;4.10;;;27.30;99.90;;;;;;5044122;28;20654;-91
2021/06/12 09:53:59;;;;;;;3.73;3.10;;;27.20;99.90;;;;;;5041838;28;20634;-92
2021/06/12 09:56:26;;;;;;;3.63;2.97;;;27.10;99.90;;;;;;5046636;28;20628;-91
2021/06/12 09:58:54;;;;;;;5.67;3.33;;;27.40;99.90;;;;;;5054988;28;20658;-95
2021/06/12 10:01:23;;;;;;;3.43;2.63;;;27.40;99.90;;;;;;5048771;28;20610;-93
2021/06/12 10:04:10;;;;;;;5.17;2.70;;;27.40;97.40;;;;;;5044781;28;20670;-92
2021/06/12 10:06:38;;;;;;;6.97;2.77;;;27.00;98.10;;;;;;5044835;28;20679;-93
2021/06/12 10:09:06;;;;;;;3.63;3.00;;;27.00;99.10;;;;;;5044952;28;21078;-94
2021/06/12 10:11:35;;;;;;;4.70;2.67;;;27.10;99.50;;;;;;5044080;28;20687;-95
2021/06/12 10:14:02;;;;;;;2.60;2.40;;;27.00;98.90;;;;;;5047662;28;20638;-94
2021/06/12 10:16:32;;;;;;;3.03;2.80;;;27.00;99.30;;;;;;5049168;28;20626;-94
2021/06/12 10:19:04;;;;;;;2.60;2.40;;;27.30;97.70;;;;;;5046542;28;20657;-95
2021/06/12 10:21:34;;;;;;;3.23;2.50;;;27.50;97.70;;;;;;5043866;28;20637;-94
2021/06/12 10:24:05;;;;;;;3.00;2.70;;;27.80;98.30;;;;;;5045768;28;20668;-94
2021/06/12 10:26:32;;;;;;;3.03;2.83;;;27.90;96.10;;;;;;5050187;28;20649;-96
2021/06/12 10:29:00;;;;;;;2.80;2.27;;;27.80;96.70;;;;;;5045665;28;20631;-94
2021/06/12 10:31:30;;;;;;;3.00;2.20;;;27.80;96.30;;;;;;5049186;28;21209;-95
2021/06/12 10:33:59;;;;;;;3.73;2.40;;;27.70;95.00;;;;;;5046462;28;20641;-94
2021/06/12 10:36:28;;;;;;;3.40;2.13;;;27.80;95.50;;;;;;5046956;28;21165;-94
2021/06/12 10:38:57;;;;;;;2.77;2.57;;;27.80;95.20;;;;;;5045982;28;20697;-94
2021/06/12 10:41:25;;;;;;;2.67;2.50;;;28.10;95.30;;;;;;5046370;28;20649;-94
2021/06/12 10:43:53;;;;;;;4.17;2.87;;;28.20;94.90;;;;;;5044881;28;21176;-95
2021/06/12 10:46:23;;;;;;;2.70;2.50;;;28.20;93.80;;;;;;5049855;28;20630;-94
2021/06/12 10:48:52;;;;;;;2.97;2.40;;;28.40;93.60;;;;;;5030267;28;20669;-95
2021/06/12 10:51:45;;;;;;;2.47;2.27;;;28.40;93.00;;;;;;5047477;28;20761;-94
2021/06/12 10:54:23;;;;;;;2.90;2.63;;;28.50;93.90;;;;;;5053410;28;20663;-93
2021/06/12 10:56:52;;;;;;;5.00;2.67;;;28.70;92.50;;;;;;5051755;28;20633;-96
2021/06/12 10:59:50;;;;;;;2.60;2.40;;;29.10;92.90;;;;;;5047199;28;20688;-94
2021/06/12 11:02:23;;;;;;;4.30;2.67;;;29.30;92.50;;;;;;5059593;28;20630;-92
2021/06/12 11:04:55;;;;;;;4.00;2.53;;;29.10;92.40;;;;;;5065373;28;21514;-94
2021/06/12 11:07:32;;;;;;;2.83;2.63;;;29.30;91.10;;;;;;5054728;28;21116;-93
2021/06/12 11:10:25;;;;;;;3.77;3.10;;;29.30;90.80;;;;;;5032400;28;20653;-94
2021/06/12 11:12:58;;;;;;;3.37;2.70;;;29.20;91.40;;;;;;5048578;28;20759;-95
2021/06/12 11:15:32;;;;;;;2.90;2.70;;;28.80;91.00;;;;;;5035116;28;20683;-93
2021/06/12 11:18:18;;;;;;;4.47;3.10;;;28.80;91.30;;;;;;5050444;28;20653;-93
2021/06/12 11:20:47;;;;;;;2.97;2.80;;;28.80;91.70;;;;;;5051919;28;20669;-93
2021/06/12 11:23:19;;;;;;;3.47;3.17;;;29.30;91.70;;;;;;5049164;28;20634;-94
2021/06/12 11:25:58;;;;;;;3.20;2.50;;;29.50;91.70;;;;;;5052427;28;20625;-94
2021/06/12 11:28:33;;;;;;;3.13;2.90;;;29.70;91.80;;;;;;5048815;28;20629;-95
2021/06/12 11:31:29;;;;;;;2.67;2.47;;;30.00;92.10;;;;;;5036010;28;21210;-93
2021/06/12 11:34:13;;;;;;;3.23;3.03;;;30.00;91.50;;;;;;5052434;28;20628;-93
2021/06/12 11:36:42;;;;;;;3.67;3.37;;;29.30;92.70;;;;;;5051038;28;20614;-94
2021/06/12 11:39:12;;;;;;;2.77;2.53;;;29.60;92.50;;;;;;5051627;28;20670;-94
2021/06/12 11:41:40;;;;;;;6.27;3.40;;;29.80;91.20;;;;;;5056078;28;20638;-96
2021/06/12 11:44:10;;;;;;;6.30;3.37;;;30.20;90.80;;;;;;5052794;28;21232;-94
2021/06/12 11:46:44;;;;;;;5.50;3.10;;;30.10;90.40;;;;;;5049050;28;20675;-95
2021/06/12 11:49:13;;;;;;;5.53;4.30;;;30.40;90.50;;;;;;5051750;28;20646;-95
2021/06/12 11:51:46;;;;;;;5.10;3.27;;;30.00;90.20;;;;;;5054638;28;21033;-96
2021/06/12 11:54:16;;;;;;;3.63;2.80;;;29.40;90.60;;;;;;5051237;28;20614;-94
2021/06/12 11:56:49;;;;;;;3.63;3.13;;;29.20;90.80;;;;;;5051659;28;20635;-96
2021/06/12 11:59:18;;;;;;;6.93;3.10;;;29.10;90.80;;;;;;5050035;28;21239;-95
2021/06/12 12:01:50;;;;;;;3.27;2.97;;;28.90;90.50;;;;;;5051890;28;20652;-95
2021/06/12 12:04:17;;;;;;;3.20;2.57;;;29.30;88.70;;;;;;5050993;28;21040;-94
2021/06/12 12:06:50;;;;;;;2.90;2.70;;;29.40;88.80;;;;;;5047532;28;20613;-92
2021/06/12 12:09:28;;;;;;;5.33;3.73;;;29.60;88.80;;;;;;5046277;28;20653;-94
2021/06/12 12:12:02;;;;;;;3.00;2.80;;;29.20;87.30;;;;;;5048817;28;20633;-96
2021/06/12 12:14:44;;;;;;;5.23;2.80;;;29.60;88.30;;;;;;5051774;28;20638;-93
2021/06/12 12:20:08;;;;;;;3.60;3.30;;;30.80;84.90;;;;;;5053688;28;20701;-96
2021/06/12 12:22:37;;;;;;;8.10;3.07;;;30.70;84.10;;;;;;5049646;28;21371;-95
2021/06/12 12:25:04;;;;;;;6.23;2.93;;;31.30;83.70;;;;;;5049323;28;20979;-94
2021/06/12 12:27:40;;;;;;;7.97;3.10;;;31.30;81.40;;;;;;5052622;28;20630;-96
2021/06/12 12:30:08;;;;;;;4.33;2.90;;;31.10;80.10;;;;;;5047777;28;20663;-96
2021/06/12 12:32:35;;;;;;;2.40;2.20;;;30.40;80.80;;;;;;5046507;28;20638;-96
2021/06/12 12:35:10;;;;;;;3.27;2.60;;;30.10;81.70;;;;;;5050958;28;20630;-95
2021/06/12 12:37:38;;;;;;;2.57;2.37;;;30.30;82.60;;;;;;5049572;28;20629;-96
2021/06/12 12:40:19;;;;;;;2.60;2.40;;;30.40;81.50;;;;;;5049557;28;20736;-96
2021/06/12 12:42:47;;;;;;;2.63;2.23;;;30.80;79.60;;;;;;5053991;28;20625;-96
2021/06/12 12:45:21;;;;;;;4.50;1.90;;;31.20;80.00;;;;;;5054167;28;20637;-96
2021/06/12 12:47:48;;;;;;;2.80;2.10;;;32.00;76.30;;;;;;5051091;28;20630;-96
2021/06/12 12:50:17;;;;;;;3.07;2.30;;;31.60;76.70;;;;;;5055044;28;20789;-96
2021/06/12 12:53:24;;;;;;;3.73;2.00;;;31.50;76.60;;;;;;5057899;28;20625;-96
2021/06/12 13:22:35;;;;;;;1.93;1.80;;;32.40;72.20;;;;;;5105302;28;20655;-96
2021/06/12 13:25:10;;;;;;;2.50;1.80;;;32.00;71.40;;;;;;5094815;28;21044;-96
2021/06/12 13:27:40;;;;;;;2.70;2.20;;;31.90;71.30;;;;;;5095113;28;20949;-95
2021/06/12 13:30:28;;;;;;;2.37;1.93;;;31.80;71.40;;;;;;5094319;28;21050;-96
2021/06/12 13:36:03;;;;;;;1.83;1.73;;;31.50;72.70;;;;;;5083682;28;20706;-96
2021/06/12 13:38:36;;;;;;;2.33;1.53;;;31.30;71.60;;;;;;5096882;28;20649;-96
2021/06/12 13:41:05;;;;;;;1.63;1.40;;;31.70;71.10;;;;;;5096525;28;20649;-96
2021/06/12 13:43:35;;;;;;;1.53;1.37;;;31.10;69.30;;;;;;5089460;28;20629;-96
2021/06/12 13:46:08;;;;;;;1.67;1.57;;;30.90;71.20;;;;;;5082488;28;21008;-96
2021/06/12 13:48:54;;;;;;;1.67;1.57;;;30.50;71.10;;;;;;5086275;28;20601;-96
2021/06/12 13:51:22;;;;;;;2.23;1.20;;;31.20;70.80;;;;;;5082308;28;20644;-95
2021/06/12 13:53:52;;;;;;;2.13;1.50;;;31.00;70.80;;;;;;5085190;28;20629;-95
2021/06/12 13:56:22;;;;;;;2.10;1.90;;;31.20;71.00;;;;;;5076045;28;20720;-93
2021/06/12 13:58:50;;;;;;;2.10;1.40;;;31.30;69.50;;;;;;5075891;28;20656;-96